Time;durP1;ratioP1;P1;durP2;ratioP2;P2;SDS_P1;SDS_P2;PMS_P1;PMS_P2;Temp;Humidity;BMP_temperature;BMP_pressure;BME280_temperature;BME280_humidity;BME280_pressure;Samples;Min_cycle;Max_cycle;Signal;HPM_P1;HPM_P2
2022/01/08 00:01:15;;;;;;;34.13;14.10;;;;;;;-4.90;86.64;100283.58;1759377;81;21165;-66
2022/01/08 00:03:41;;;;;;;25.92;13.28;;;;;;;-4.92;86.42;100281.59;1748999;79;21002;-66
2022/01/08 00:06:08;;;;;;;34.48;13.80;;;;;;;-4.98;86.20;100285.06;1752416;81;21539;-66
2022/01/08 00:08:35;;;;;;;34.20;15.65;;;;;;;-5.05;86.21;100289.05;1759022;81;21091;-65
2022/01/08 00:11:01;;;;;;;33.42;15.00;;;;;;;-5.05;86.24;100290.94;1756212;81;20991;-66
2022/01/08 00:13:28;;;;;;;37.75;15.60;;;;;;;-5.03;86.18;100298.27;1748407;81;20971;-66
2022/01/08 00:15:55;;;;;;;37.13;16.55;;;;;;;-5.04;86.14;100292.08;1752427;81;21492;-66
2022/01/08 00:18:23;;;;;;;44.05;18.92;;;;;;;-5.07;86.19;100291.63;1755050;81;20959;-66
2022/01/08 00:20:50;;;;;;;51.88;21.68;;;;;;;-5.12;86.27;100300.30;1753568;81;21142;-66
2022/01/08 00:23:16;;;;;;;58.08;24.23;;;;;;;-5.13;86.28;100302.15;1759411;81;20868;-67
2022/01/08 00:25:42;;;;;;;52.78;20.88;;;;;;;-5.15;86.04;100295.29;1759370;81;21023;-67
2022/01/08 00:28:11;;;;;;;54.60;22.00;;;;;;;-5.21;85.99;100305.49;1754022;81;21586;-66
2022/01/08 00:30:37;;;;;;;44.95;18.35;;;;;;;-5.26;86.28;100305.58;1747591;81;20960;-66
2022/01/08 00:33:04;;;;;;;39.27;17.07;;;;;;;-5.20;86.82;100302.61;1756018;81;21741;-68
2022/01/08 00:35:32;;;;;;;41.63;17.90;;;;;;;-5.07;87.23;100303.23;1749499;81;21443;-64
2022/01/08 00:38:00;;;;;;;37.50;16.05;;;;;;;-4.99;87.19;100299.54;1755714;81;20987;-66
2022/01/08 00:40:27;;;;;;;40.08;15.93;;;;;;;-4.90;87.32;100290.30;1755934;81;21019;-63
2022/01/08 00:42:55;;;;;;;29.90;14.00;;;;;;;-4.81;87.30;100296.86;1748892;81;21414;-66
2022/01/08 00:45:21;;;;;;;26.40;11.83;;;;;;;-4.78;86.89;100295.11;1755750;81;21147;-66
2022/01/08 00:47:48;;;;;;;24.37;11.75;;;;;;;-4.77;86.83;100292.73;1755862;81;20868;-66
2022/01/08 00:50:14;;;;;;;28.98;12.50;;;;;;;-4.77;86.61;100295.41;1754582;81;22094;-65
2022/01/08 00:52:41;;;;;;;26.77;13.25;;;;;;;-4.86;86.25;100291.24;1754059;81;20908;-66
2022/01/08 00:55:09;;;;;;;29.35;12.82;;;;;;;-4.96;86.19;100291.08;1757276;81;20930;-70
2022/01/08 00:57:36;;;;;;;31.00;11.95;;;;;;;-5.00;86.20;100288.48;1752284;81;21166;-67
2022/01/08 01:00:06;;;;;;;26.40;13.55;;;;;;;-5.04;86.28;100283.17;1734300;81;21181;-67
2022/01/08 01:02:35;;;;;;;31.25;12.93;;;;;;;-5.03;86.25;100286.16;1759286;81;21033;-66
2022/01/08 01:05:05;;;;;;;28.12;14.10;;;;;;;-5.03;85.97;100284.81;1748795;81;21018;-67
2022/01/08 01:07:32;;;;;;;27.05;13.28;;;;;;;-5.09;85.81;100278.90;1754524;81;20999;-66
2022/01/08 01:09:58;;;;;;;26.23;13.20;;;;;;;-5.17;86.00;100269.14;1748987;81;21134;-65
2022/01/08 01:12:24;;;;;;;29.85;13.32;;;;;;;-5.17;86.23;100255.70;1750560;81;20932;-66
2022/01/08 01:14:51;;;;;;;29.40;12.63;;;;;;;-5.15;86.33;100257.16;1755749;81;20975;-66
2022/01/08 01:17:17;;;;;;;21.93;11.12;;;;;;;-5.11;86.20;100272.38;1753675;81;21083;-67
2022/01/08 01:19:45;;;;;;;22.90;11.57;;;;;;;-5.08;86.12;100273.86;1751423;81;20928;-66
2022/01/08 01:22:15;;;;;;;23.00;11.95;;;;;;;-5.09;85.93;100278.39;1752355;81;21800;-66
2022/01/08 01:24:40;;;;;;;24.60;12.00;;;;;;;-5.09;85.82;100282.42;1748576;81;21492;-65
2022/01/08 01:27:47;;;;;;;29.55;12.28;;;;;;;-5.10;85.70;100287.47;1752204;81;20999;-64
2022/01/08 01:30:10;;;;;;;34.73;13.68;;;;;;;-5.16;85.77;100282.39;1748511;80;21012;-66
2022/01/08 01:48:56;;;;;;;21.52;9.55;;;;;;;-4.92;86.17;100281.59;1722423;81;21410;-65
2022/01/08 01:51:24;;;;;;;22.82;10.20;;;;;;;-4.89;86.22;100287.08;1755768;81;20976;-66
2022/01/08 01:53:51;;;;;;;21.57;9.63;;;;;;;-4.82;86.44;100283.92;1782006;80;20988;-66
2022/01/08 01:56:18;;;;;;;20.10;8.78;;;;;;;-4.79;86.31;100286.70;1779712;80;21945;-64
2022/01/08 01:58:45;;;;;;;21.80;9.85;;;;;;;-4.74;86.45;100272.15;1784737;80;21405;-67
2022/01/08 02:01:11;;;;;;;20.57;9.80;;;;;;;-4.68;86.31;100279.44;1786953;80;21105;-67
2022/01/08 02:03:40;;;;;;;18.40;9.25;;;;;;;-4.61;86.30;100277.28;1779624;80;20861;-66
2022/01/08 02:06:07;;;;;;;17.75;8.03;;;;;;;-4.56;86.12;100268.94;1788431;80;20945;-66
2022/01/08 02:08:35;;;;;;;15.55;7.92;;;;;;;-4.52;86.03;100266.67;1789850;78;20959;-67
2022/01/08 02:11:02;;;;;;;19.23;9.03;;;;;;;-4.54;85.62;100259.31;1786883;78;21149;-66
2022/01/08 02:13:28;;;;;;;20.97;9.05;;;;;;;-4.60;85.43;100273.55;1783469;80;21512;-67
2022/01/08 02:15:55;;;;;;;18.73;8.98;;;;;;;-4.65;85.12;100267.44;1786857;78;21012;-68
2022/01/08 02:18:26;;;;;;;22.80;8.30;;;;;;;-4.76;84.83;100265.62;1786865;80;20868;-66
2022/01/08 02:20:57;;;;;;;23.77;9.48;;;;;;;-4.87;84.79;100256.79;1783310;80;20956;-66
2022/01/08 02:23:30;;;;;;;18.00;8.68;;;;;;;-4.95;84.86;100260.99;1779794;80;20900;-67
2022/01/08 02:26:06;;;;;;;17.10;8.35;;;;;;;-5.05;84.96;100258.67;1790552;80;21215;-65
2022/01/08 02:28:34;;;;;;;13.95;8.15;;;;;;;-5.10;85.00;100255.75;1786824;80;20937;-67
2022/01/08 02:31:00;;;;;;;17.27;8.70;;;;;;;-5.12;84.91;100257.29;1779705;80;21044;-66
2022/01/08 02:33:27;;;;;;;22.85;9.38;;;;;;;-5.16;84.72;100256.02;1779529;80;22007;-66
2022/01/08 02:35:53;;;;;;;19.80;10.10;;;;;;;-5.22;84.84;100250.09;1779651;80;20900;-67
2022/01/08 02:38:21;;;;;;;17.23;8.98;;;;;;;-5.24;84.98;100257.01;1783328;80;21203;-66
2022/01/08 02:40:57;;;;;;;17.90;9.50;;;;;;;-5.23;84.91;100252.44;1780405;80;21382;-66
2022/01/08 02:43:20;;;;;;;22.95;9.05;;;;;;;-5.22;84.79;100264.34;1778018;79;21078;-66
2022/01/08 02:45:47;;;;;;;21.05;9.58;;;;;;;-5.23;84.56;100249.75;1790847;80;21043;-64
2022/01/08 02:48:13;;;;;;;22.25;9.50;;;;;;;-5.27;84.64;100247.47;1787012;80;21524;-66
2022/01/08 02:50:39;;;;;;;19.25;8.15;;;;;;;-5.26;84.84;100249.65;1783363;80;21149;-66
2022/01/08 02:53:07;;;;;;;16.35;7.45;;;;;;;-5.26;84.67;100241.59;1790705;80;20871;-67
2022/01/08 02:55:34;;;;;;;18.32;9.65;;;;;;;-5.28;84.55;100240.45;1780482;80;20940;-65
2022/01/08 02:58:00;;;;;;;20.48;8.98;;;;;;;-5.29;84.37;100245.48;1717476;82;21630;-65
2022/01/08 03:00:27;;;;;;;18.30;8.03;;;;;;;-5.35;84.27;100240.91;1716731;82;21011;-66
2022/01/08 03:02:53;;;;;;;18.87;8.85;;;;;;;-5.40;84.43;100246.87;1720831;82;21090;-65
2022/01/08 03:05:20;;;;;;;18.00;8.75;;;;;;;-5.42;84.34;100250.27;1716983;82;21678;-66
2022/01/08 03:07:47;;;;;;;16.90;8.48;;;;;;;-5.46;84.21;100258.92;1731030;80;20879;-67
2022/01/08 03:10:16;;;;;;;17.15;8.40;;;;;;;-5.48;84.15;100260.46;1740103;81;20985;-66
2022/01/08 03:12:42;;;;;;;20.15;9.95;;;;;;;-5.55;84.06;100264.44;1739286;81;20993;-67
2022/01/08 03:15:14;;;;;;;20.57;9.08;;;;;;;-5.56;84.25;100268.13;1749563;81;21938;-66
2022/01/08 03:17:41;;;;;;;18.92;9.70;;;;;;;-5.56;84.57;100269.48;1736169;81;21067;-66
2022/01/08 03:20:12;;;;;;;18.02;9.35;;;;;;;-5.56;84.81;100260.61;1716878;81;21975;-66
2022/01/08 03:22:39;;;;;;;19.65;9.08;;;;;;;-5.55;84.93;100255.55;1716823;82;21024;-66
2022/01/08 03:25:07;;;;;;;18.32;8.00;;;;;;;-5.57;84.96;100252.22;1719760;81;21045;-67
2022/01/08 03:27:34;;;;;;;17.37;9.88;;;;;;;-5.56;85.04;100251.20;1779481;79;21092;-64
2022/01/08 03:30:05;;;;;;;24.00;10.70;;;;;;;-5.54;84.91;100255.34;1785743;80;21540;-65
2022/01/08 03:32:44;;;;;;;31.35;12.85;;;;;;;-5.54;84.62;100255.34;1716014;82;21413;-66
2022/01/08 03:35:10;;;;;;;28.35;12.15;;;;;;;-5.56;84.56;100252.55;1749502;81;20988;-65
2022/01/08 03:37:36;;;;;;;26.68;11.63;;;;;;;-5.56;84.69;100248.52;1751963;81;21085;-66
2022/01/08 03:40:04;;;;;;;24.43;10.85;;;;;;;-5.55;84.70;100250.17;1743427;81;22307;-65
2022/01/08 03:42:31;;;;;;;31.90;13.48;;;;;;;-5.57;84.52;100252.22;1743503;82;20912;-66
2022/01/08 03:44:57;;;;;;;28.07;11.75;;;;;;;-5.60;84.76;100255.30;1741889;81;21579;-66
2022/01/08 03:47:41;;;;;;;31.50;13.35;;;;;;;-5.63;85.03;100253.84;1746218;80;20968;-65
2022/01/08 03:49:52;;;;;;;32.65;14.43;;;;;;;-5.60;85.12;100253.95;1764793;80;20861;-66
2022/01/08 03:52:19;;;;;;;28.85;13.40;;;;;;;-5.60;85.10;100253.95;1773769;79;21871;-66
2022/01/08 03:54:46;;;;;;;21.77;11.40;;;;;;;-5.58;85.22;100245.20;1770786;80;21382;-65
2022/01/08 03:57:12;;;;;;;21.25;9.58;;;;;;;-5.55;85.12;100240.77;1770366;80;20960;-66
2022/01/08 03:59:38;;;;;;;17.50;8.48;;;;;;;-5.55;84.85;100233.55;1766497;80;21158;-66
2022/01/08 04:02:06;;;;;;;20.52;9.45;;;;;;;-5.55;84.86;100230.02;1736720;81;21046;-65
2022/01/08 04:04:33;;;;;;;19.05;9.38;;;;;;;-5.54;84.78;100222.27;1740897;80;21101;-64
2022/01/08 04:07:00;;;;;;;20.95;9.43;;;;;;;-5.54;84.50;100227.64;1765250;78;20968;-66
2022/01/08 04:09:26;;;;;;;18.92;9.40;;;;;;;-5.56;84.26;100225.16;1765322;80;21027;-65
2022/01/08 04:11:55;;;;;;;18.07;9.85;;;;;;;-5.57;84.14;100228.04;1770308;80;20979;-66
2022/01/08 04:14:21;;;;;;;24.52;12.23;;;;;;;-5.58;84.13;100239.32;1771353;80;21083;-65
2022/01/08 04:16:52;;;;;;;27.87;13.62;;;;;;;-5.57;84.13;100238.78;1765945;80;21831;-67
2022/01/08 04:19:18;;;;;;;29.87;13.08;;;;;;;-5.64;84.26;100236.89;1765936;80;21516;-66
2022/01/08 04:21:59;;;;;;;30.97;14.28;;;;;;;-5.66;84.62;100236.25;1767108;80;20976;-66
2022/01/08 04:24:12;;;;;;;32.90;13.10;;;;;;;-5.65;84.86;100237.09;1765555;80;20933;-65
2022/01/08 04:26:39;;;;;;;28.98;12.58;;;;;;;-5.63;85.00;100237.73;1720039;81;20992;-65
2022/01/08 04:29:06;;;;;;;26.27;13.40;;;;;;;-5.66;84.91;100238.94;1758613;80;21133;-67
2022/01/08 04:31:33;;;;;;;28.38;12.82;;;;;;;-5.68;84.97;100240.17;1737691;81;20983;-65
2022/01/08 04:34:00;;;;;;;25.80;11.90;;;;;;;-5.68;85.19;100240.98;1724260;81;21050;-66
2022/01/08 04:36:26;;;;;;;21.70;10.18;;;;;;;-5.65;85.24;100239.27;1772399;80;20954;-66
2022/01/08 04:38:52;;;;;;;14.03;7.53;;;;;;;-5.61;85.25;100245.05;1745882;82;21055;-66
2022/01/08 04:41:18;;;;;;;18.70;7.47;;;;;;;-5.57;85.39;100242.81;1756246;80;21066;-65
2022/01/08 04:43:45;;;;;;;18.90;8.85;;;;;;;-5.48;85.75;100246.19;1768206;80;21011;-65
2022/01/08 04:46:12;;;;;;;14.07;7.53;;;;;;;-5.36;86.01;100243.28;1768889;79;20921;-65
2022/01/08 04:48:38;;;;;;;15.83;7.08;;;;;;;-5.20;86.06;100243.47;1760516;80;21020;-65
2022/01/08 04:51:05;;;;;;;16.85;8.35;;;;;;;-5.06;85.87;100247.58;1768561;80;21524;-66
2022/01/08 04:53:31;;;;;;;16.75;8.05;;;;;;;-4.99;85.43;100241.73;1763793;80;21111;-65
2022/01/08 04:55:59;;;;;;;17.55;8.13;;;;;;;-4.90;85.26;100239.72;1765949;80;20995;-66
2022/01/08 04:58:28;;;;;;;16.27;8.50;;;;;;;-4.83;85.00;100248.66;1761397;79;21485;-65
2022/01/08 05:00:55;;;;;;;16.15;8.68;;;;;;;-4.79;84.74;100239.13;1771382;79;20948;-66
2022/01/08 05:03:21;;;;;;;16.32;8.58;;;;;;;-4.75;84.37;100244.95;1765082;80;21043;-66
2022/01/08 05:05:48;;;;;;;16.45;7.87;;;;;;;-4.73;84.02;100248.27;1762434;80;22051;-65
2022/01/08 05:08:14;;;;;;;20.77;8.73;;;;;;;-4.72;83.94;100241.85;1768417;80;21044;-66
2022/01/08 05:10:41;;;;;;;18.15;8.63;;;;;;;-4.71;83.71;100245.38;1757646;79;21028;-65
2022/01/08 05:13:08;;;;;;;19.57;8.15;;;;;;;-4.62;83.83;100244.70;1751473;80;21540;-66
2022/01/08 05:15:34;;;;;;;18.05;8.85;;;;;;;-4.61;83.27;100236.93;1748809;81;20950;-65
2022/01/08 05:18:04;;;;;;;17.57;8.50;;;;;;;-4.62;83.22;100240.66;1737200;81;21254;-66
2022/01/08 05:20:35;;;;;;;14.40;7.65;;;;;;;-4.61;83.00;100240.97;1752357;81;20939;-66
2022/01/08 05:23:00;;;;;;;14.47;7.95;;;;;;;-4.62;82.89;100240.66;1773363;79;20996;-66
2022/01/08 05:25:29;;;;;;;19.20;8.80;;;;;;;-4.67;82.54;100254.19;1758556;80;21483;-66
2022/01/08 05:27:58;;;;;;;15.08;8.13;;;;;;;-4.70;82.62;100246.52;1772705;80;21067;-66
2022/01/08 05:30:24;;;;;;;12.63;6.85;;;;;;;-4.69;82.52;100248.17;1762164;80;21210;-63
2022/01/08 05:32:51;;;;;;;12.53;6.72;;;;;;;-4.68;82.34;100247.16;1752695;80;20932;-66
2022/01/08 05:35:18;;;;;;;15.20;6.95;;;;;;;-4.67;82.20;100248.80;1772932;80;21598;-66
2022/01/08 05:37:45;;;;;;;12.47;6.22;;;;;;;-4.69;82.01;100253.55;1771411;80;20925;-66
2022/01/08 05:40:12;;;;;;;15.25;7.05;;;;;;;-4.72;81.79;100251.77;1750314;80;21013;-67
2022/01/08 05:42:40;;;;;;;14.00;6.03;;;;;;;-4.78;81.62;100261.49;1778268;80;21148;-66
2022/01/08 05:45:07;;;;;;;14.40;7.12;;;;;;;-4.82;81.59;100265.59;1740371;81;20979;-65
2022/01/08 05:47:35;;;;;;;11.83;6.55;;;;;;;-4.86;81.61;100262.47;1754198;81;20961;-66
2022/01/08 05:50:02;;;;;;;13.03;6.75;;;;;;;-4.82;81.63;100266.94;1765162;79;21003;-66
2022/01/08 05:52:28;;;;;;;12.18;6.00;;;;;;;-4.78;81.67;100264.98;1761131;79;20954;-65
2022/01/08 05:54:54;;;;;;;14.70;6.12;;;;;;;-4.76;81.50;100265.62;1767572;80;21134;-65
2022/01/08 05:57:21;;;;;;;13.48;6.30;;;;;;;-4.77;81.26;100261.29;1770145;80;20984;-66
2022/01/08 05:59:47;;;;;;;11.43;5.58;;;;;;;-4.73;81.46;100268.45;1756777;80;21520;-65
2022/01/08 06:02:13;;;;;;;12.18;5.97;;;;;;;-4.67;81.31;100274.87;1762585;80;21111;-66
2022/01/08 06:04:39;;;;;;;15.00;6.10;;;;;;;-4.59;81.50;100279.27;1768132;79;21039;-66
2022/01/08 06:07:07;;;;;;;11.50;5.67;;;;;;;-4.48;81.30;100284.56;1745223;79;21453;-65
2022/01/08 06:09:33;;;;;;;12.25;6.00;;;;;;;-4.38;81.02;100284.21;1769103;80;21381;-66
2022/01/08 06:12:01;;;;;;;12.93;5.87;;;;;;;-4.31;80.63;100276.97;1764591;80;20948;-66
2022/01/08 06:14:28;;;;;;;11.83;6.42;;;;;;;-4.29;80.35;100282.98;1761915;80;20995;-65
2022/01/08 06:16:54;;;;;;;9.35;5.97;;;;;;;-4.30;80.24;100275.95;1764863;80;21424;-66
2022/01/08 06:19:20;;;;;;;14.58;6.20;;;;;;;-4.29;80.27;100281.13;1764967;80;21120;-67
2022/01/08 06:21:48;;;;;;;11.85;5.22;;;;;;;-4.23;80.15;100274.09;1772357;80;21023;-63
2022/01/08 06:24:14;;;;;;;7.87;5.03;;;;;;;-4.19;79.85;100279.39;1764495;80;20924;-65
2022/01/08 06:26:42;;;;;;;13.28;5.15;;;;;;;-4.14;79.75;100285.50;1748052;80;20992;-66
2022/01/08 06:29:08;;;;;;;11.10;4.20;;;;;;;-4.07;79.54;100280.13;1732071;81;20983;-66
2022/01/08 06:31:35;;;;;;;8.33;4.53;;;;;;;-4.00;79.34;100268.87;1743235;81;21138;-66
2022/01/08 06:34:02;;;;;;;16.12;6.08;;;;;;;-4.00;78.88;100264.83;1738605;81;21030;-64
2022/01/08 06:36:28;;;;;;;9.93;5.50;;;;;;;-4.00;78.78;100264.83;1747629;81;21067;-65
2022/01/08 06:38:54;;;;;;;11.05;6.17;;;;;;;-4.01;78.74;100269.91;1739821;81;21525;-66
2022/01/08 06:41:21;;;;;;;13.10;6.20;;;;;;;-4.03;78.66;100260.66;1764153;79;21051;-67
2022/01/08 06:43:47;;;;;;;11.90;5.87;;;;;;;-4.05;78.55;100260.57;1776807;80;21112;-66
2022/01/08 06:46:14;;;;;;;12.60;5.65;;;;;;;-4.06;78.50;100262.96;1772316;80;21231;-65
2022/01/08 06:48:43;;;;;;;10.28;5.53;;;;;;;-4.09;78.41;100268.73;1764575;79;21426;-66
2022/01/08 06:51:09;;;;;;;12.95;5.80;;;;;;;-4.10;78.55;100269.77;1772942;80;21013;-66
2022/01/08 06:53:36;;;;;;;15.38;6.10;;;;;;;-4.07;78.76;100272.89;1739012;81;21008;-66
2022/01/08 06:56:04;;;;;;;8.70;5.28;;;;;;;-4.04;78.49;100277.03;1737928;81;21815;-65
2022/01/08 06:58:31;;;;;;;10.70;5.40;;;;;;;-4.00;78.59;100278.29;1751300;81;20888;-66
2022/01/08 07:00:57;;;;;;;9.28;4.85;;;;;;;-3.96;78.70;100274.67;1772552;79;20980;-65
2022/01/08 07:03:24;;;;;;;11.63;6.50;;;;;;;-3.87;78.71;100284.20;1780613;80;21031;-65
2022/01/08 07:05:50;;;;;;;10.65;5.30;;;;;;;-3.83;78.35;100285.97;1778690;80;21071;-66
2022/01/08 07:08:16;;;;;;;14.47;6.72;;;;;;;-3.77;78.41;100289.72;1778896;80;21209;-66
2022/01/08 07:10:42;;;;;;;19.27;8.33;;;;;;;-3.72;78.41;100279.16;1780759;80;21473;-66
2022/01/08 07:13:09;;;;;;;14.13;7.35;;;;;;;-3.70;78.42;100280.59;1740948;81;21004;-66
2022/01/08 07:15:36;;;;;;;15.88;7.37;;;;;;;-3.65;78.32;100284.55;1753027;81;20953;-67
2022/01/08 07:18:02;;;;;;;16.95;7.12;;;;;;;-3.65;78.13;100289.94;1760065;80;20932;-66
2022/01/08 07:20:28;;;;;;;18.67;7.75;;;;;;;-3.62;78.18;100294.91;1778270;80;21462;-64
2022/01/08 07:22:55;;;;;;;21.27;9.15;;;;;;;-3.57;78.35;100293.77;1772014;80;20893;-64
2022/01/08 07:25:21;;;;;;;20.88;8.98;;;;;;;-3.55;78.23;100287.13;1739097;80;20992;-65
2022/01/08 07:27:47;;;;;;;18.40;7.90;;;;;;;-3.51;78.10;100291.59;1757262;81;21550;-66
2022/01/08 07:30:14;;;;;;;20.20;8.45;;;;;;;-3.50;78.10;100289.73;1765330;80;21040;-66
2022/01/08 07:32:46;;;;;;;21.10;6.72;;;;;;;-3.53;77.84;100290.15;1761410;80;21832;-65
2022/01/08 07:35:14;;;;;;;19.32;8.50;;;;;;;-3.50;78.06;100290.57;1773954;80;21922;-65
2022/01/08 07:37:41;;;;;;;22.25;8.55;;;;;;;-3.43;78.08;100294.06;1781953;80;21592;-65
2022/01/08 07:40:08;;;;;;;17.25;8.43;;;;;;;-3.34;78.20;100294.69;1769762;80;21070;-66
2022/01/08 07:42:34;;;;;;;15.32;8.03;;;;;;;-3.25;78.24;100293.97;1761461;80;21063;-66
2022/01/08 07:45:01;;;;;;;20.62;9.03;;;;;;;-3.15;78.15;100298.09;1728124;81;21900;-66
2022/01/08 07:47:27;;;;;;;21.77;8.75;;;;;;;-3.07;77.78;100291.96;1751073;80;20947;-66
2022/01/08 07:49:54;;;;;;;30.45;11.20;;;;;;;-3.01;77.53;100286.77;1767723;80;21040;-66
2022/01/08 07:52:20;;;;;;;20.95;8.88;;;;;;;-2.97;77.65;100287.47;1768864;80;21493;-67
2022/01/08 07:54:47;;;;;;;16.30;7.95;;;;;;;-2.84;77.53;100283.94;1762330;80;20976;-66
2022/01/08 07:57:14;;;;;;;17.75;7.47;;;;;;;-2.76;77.07;100286.91;1738495;81;21156;-66
2022/01/08 07:59:42;;;;;;;16.95;6.92;;;;;;;-2.71;77.03;100283.05;1736435;81;20987;-66
2022/01/08 08:02:10;;;;;;;13.43;6.03;;;;;;;-2.64;76.69;100276.79;1737388;81;21007;-65
2022/01/08 08:04:37;;;;;;;13.98;6.58;;;;;;;-2.60;76.64;100276.69;1738078;81;21723;-67
2022/01/08 08:07:04;;;;;;;12.50;6.55;;;;;;;-2.51;76.56;100274.58;1736450;81;20979;-66
2022/01/08 08:09:30;;;;;;;16.02;7.10;;;;;;;-2.47;76.29;100271.23;1739824;81;21091;-66
2022/01/08 08:11:56;;;;;;;14.98;7.55;;;;;;;-2.40;75.67;100268.50;1771465;80;21410;-66
2022/01/08 08:14:23;;;;;;;17.10;7.00;;;;;;;-2.41;75.59;100272.77;1766751;80;20852;-66
2022/01/08 08:16:50;;;;;;;21.77;8.40;;;;;;;-2.40;75.69;100272.55;1773899;79;20978;-66
2022/01/08 08:19:17;;;;;;;18.67;8.20;;;;;;;-2.37;75.30;100273.46;1767232;79;21290;-65
2022/01/08 08:21:43;;;;;;;15.00;7.12;;;;;;;-2.33;75.18;100273.86;1757943;79;21026;-66
2022/01/08 08:24:10;;;;;;;16.00;7.70;;;;;;;-2.27;75.19;100275.69;1772383;80;20845;-66
2022/01/08 08:26:38;;;;;;;18.12;8.10;;;;;;;-2.20;75.00;100271.09;1769098;78;21874;-67
2022/01/08 08:29:05;;;;;;;18.52;7.62;;;;;;;-2.12;75.08;100273.23;1762470;78;20924;-67
2022/01/08 08:31:31;;;;;;;14.73;7.00;;;;;;;-2.04;74.71;100277.03;1781498;80;21031;-66
2022/01/08 08:33:58;;;;;;;16.97;6.72;;;;;;;-1.96;74.46;100275.41;1774883;80;21157;-65
2022/01/08 08:36:25;;;;;;;14.13;6.60;;;;;;;-1.88;74.45;100264.05;1777210;80;21389;-66
2022/01/08 08:38:52;;;;;;;16.02;8.45;;;;;;;-1.76;74.36;100263.66;1766508;79;21044;-65
2022/01/08 08:41:19;;;;;;;16.30;7.45;;;;;;;-1.66;74.21;100263.16;1731477;81;20995;-66
2022/01/08 08:43:46;;;;;;;14.93;7.78;;;;;;;-1.56;73.90;100264.52;1768565;79;20991;-65
2022/01/08 08:46:12;;;;;;;10.85;5.50;;;;;;;-1.48;73.67;100259.67;1769212;78;21539;-66
2022/01/08 08:48:38;;;;;;;13.88;6.85;;;;;;;-1.43;73.11;100257.64;1735633;81;21690;-64
2022/01/08 08:51:05;;;;;;;14.73;7.20;;;;;;;-1.33;73.00;100257.68;1760802;79;20992;-65
2022/01/08 08:53:31;;;;;;;13.13;6.12;;;;;;;-1.26;73.03;100255.20;1757828;79;20932;-65
2022/01/08 08:56:00;;;;;;;11.65;6.20;;;;;;;-1.17;72.37;100257.61;1761725;80;21003;-66
2022/01/08 08:58:28;;;;;;;9.43;5.67;;;;;;;-1.13;72.34;100249.37;1748300;78;21104;-65
2022/01/08 09:00:55;;;;;;;12.00;6.47;;;;;;;-1.03;72.12;100250.19;1739802;81;21643;-65
2022/01/08 09:03:21;;;;;;;11.25;5.92;;;;;;;-0.93;71.87;100257.27;1748817;81;21507;-66
2022/01/08 09:05:48;;;;;;;11.38;6.10;;;;;;;-0.85;70.96;100254.77;1739119;81;21101;-66
2022/01/08 09:08:16;;;;;;;14.83;6.17;;;;;;;-0.88;71.09;100243.89;1766897;80;21047;-66
2022/01/08 09:10:44;;;;;;;18.25;6.87;;;;;;;-0.79;71.25;100244.94;1762783;80;20999;-65
2022/01/08 09:13:12;;;;;;;13.80;6.37;;;;;;;-0.70;70.93;100241.40;1769032;80;21438;-65
2022/01/08 09:15:41;;;;;;;11.10;5.55;;;;;;;-0.63;70.50;100240.25;1756015;80;20988;-63
2022/01/08 09:18:07;;;;;;;9.33;5.40;;;;;;;-0.59;69.75;100234.38;1770015;80;20901;-67
2022/01/08 09:20:34;;;;;;;13.32;6.17;;;;;;;-0.58;69.84;100234.70;1764927;80;20932;-63
2022/01/08 09:23:01;;;;;;;9.60;5.50;;;;;;;-0.52;69.98;100230.55;1773955;80;21457;-65
2022/01/08 09:25:27;;;;;;;11.63;6.05;;;;;;;-0.44;69.59;100227.20;1753164;80;21023;-65
2022/01/08 09:27:54;;;;;;;10.53;4.83;;;;;;;-0.43;68.90;100222.94;1763829;79;21027;-65
2022/01/08 09:30:21;;;;;;;13.32;5.62;;;;;;;-0.39;68.48;100227.34;1769758;80;21485;-66
2022/01/08 09:32:47;;;;;;;14.43;5.62;;;;;;;-0.29;68.64;100218.14;1771707;79;21228;-64
2022/01/08 09:35:14;;;;;;;16.60;5.40;;;;;;;-0.21;68.31;100221.59;1766040;80;21074;-67
2022/01/08 09:37:41;;;;;;;9.25;5.47;;;;;;;-0.16;68.13;100223.91;1776508;80;20976;-66
2022/01/08 09:40:10;;;;;;;9.43;4.55;;;;;;;-0.17;67.55;100222.79;1771746;79;21531;-67
2022/01/08 09:42:37;;;;;;;9.15;4.70;;;;;;;-0.15;66.55;100217.94;1777741;80;20968;-66
2022/01/08 09:45:04;;;;;;;9.10;3.87;;;;;;;-0.11;66.28;100209.66;1765800;80;21441;-65
2022/01/08 09:47:33;;;;;;;7.92;3.65;;;;;;;-0.09;65.89;100212.97;1777768;79;21031;-65
2022/01/08 09:49:59;;;;;;;8.00;3.67;;;;;;;-0.04;64.07;100202.27;1766448;80;21670;-66
2022/01/08 09:52:25;;;;;;;12.13;4.40;;;;;;;-0.01;64.28;100205.86;1771165;80;20984;-64
2022/01/08 09:54:51;;;;;;;10.82;4.33;;;;;;;0.08;63.60;100202.80;1773493;80;20976;-64
2022/01/08 09:57:18;;;;;;;7.28;3.70;;;;;;;0.14;63.71;100203.77;1765989;80;21031;-65
2022/01/08 09:59:44;;;;;;;4.00;2.65;;;;;;;0.16;62.49;100198.91;1774191;80;21008;-66
2022/01/08 10:02:10;;;;;;;6.20;2.90;;;;;;;0.08;61.68;100187.91;1765978;80;20992;-65
2022/01/08 10:04:36;;;;;;;5.65;3.42;;;;;;;-0.05;61.80;100182.98;1743224;81;20928;-67
2022/01/08 10:07:24;;;;;;;5.50;2.80;;;;;;;-0.09;61.51;100189.94;1748451;81;21172;-67
2022/01/08 10:10:17;;;;;;;8.05;3.30;;;;;;;-0.10;61.25;100190.98;1732596;81;21479;-66
2022/01/08 10:12:55;;;;;;;;;;;;;;;-0.10;60.42;100189.63;1771357;79;21238;-66
2022/01/08 10:18:31;;;;;;;7.05;3.27;;;;;;;-0.19;60.93;100170.71;1774680;78;21048;-68
2022/01/08 10:21:02;;;;;;;6.25;3.50;;;;;;;-0.11;61.03;100172.25;1767459;80;21017;-66
2022/01/08 10:23:31;;;;;;;9.33;3.92;;;;;;;-0.03;60.97;100170.55;1772032;80;21036;-67
2022/01/08 10:26:08;;;;;;;7.25;3.20;;;;;;;0.05;59.63;100174.27;1758104;79;21163;-67
2022/01/08 10:28:52;;;;;;;9.48;3.10;;;;;;;0.10;59.70;100177.66;1775687;79;21369;-67
2022/01/08 10:31:29;;;;;;;14.30;6.05;;;;;;;0.16;59.77;100166.39;1768195;80;20999;-64
2022/01/08 10:34:15;;;;;;;12.25;4.75;;;;;;;0.17;59.41;100163.99;1770156;80;20952;-66
2022/01/08 10:36:57;;;;;;;5.17;3.27;;;;;;;0.24;59.68;100159.26;1771269;80;21460;-67
2022/01/08 10:39:35;;;;;;;10.95;4.95;;;;;;;0.38;59.50;100153.08;1774381;80;21493;-68
2022/01/08 10:42:11;;;;;;;8.60;4.12;;;;;;;0.46;59.15;100147.30;1772205;80;21051;-67
2022/01/08 10:44:38;;;;;;;4.78;2.95;;;;;;;0.55;58.86;100150.47;1766381;80;21481;-66
2022/01/08 10:47:13;;;;;;;9.95;3.20;;;;;;;0.53;58.70;100164.00;1774056;80;20940;-65
2022/01/08 10:50:05;;;;;;;4.65;2.33;;;;;;;0.53;58.77;100159.37;1756306;78;20984;-67
2022/01/08 10:52:43;;;;;;;4.85;2.75;;;;;;;0.57;58.26;100162.44;1737396;81;21497;-66
2022/01/08 10:55:10;;;;;;;6.67;3.22;;;;;;;0.57;58.51;100151.59;1774595;80;20884;-67
2022/01/08 10:57:41;;;;;;;13.05;3.55;;;;;;;0.53;58.24;100149.88;1756451;80;20937;-67
2022/01/08 11:00:11;;;;;;;6.92;3.77;;;;;;;0.50;57.91;100152.23;1755814;80;20967;-67
2022/01/08 11:02:41;;;;;;;5.65;3.08;;;;;;;0.50;58.11;100149.52;1767920;80;21114;-67
2022/01/08 11:05:08;;;;;;;7.67;3.60;;;;;;;0.48;58.47;100153.31;1792454;79;21130;-65
2022/01/08 11:07:39;;;;;;;6.97;3.77;;;;;;;0.54;58.11;100151.55;1764166;79;20984;-65
2022/01/08 11:10:16;;;;;;;11.08;3.58;;;;;;;0.59;58.47;100153.54;1768042;79;20936;-65
2022/01/08 11:12:44;;;;;;;5.78;3.27;;;;;;;0.67;58.08;100142.32;1767817;79;21512;-66
2022/01/08 11:17:52;;;;;;;9.43;4.10;;;;;;;0.66;57.22;100141.20;1755332;80;21385;-65
2022/01/08 11:20:21;;;;;;;6.50;3.13;;;;;;;0.63;57.19;100119.46;1759426;80;21028;-67
2022/01/08 11:22:51;;;;;;;8.70;3.52;;;;;;;0.66;57.30;100118.15;1774812;80;21631;-67
2022/01/08 11:25:30;;;;;;;9.55;3.58;;;;;;;0.67;57.58;100113.00;1755874;80;21088;-66
2022/01/08 11:28:10;;;;;;;6.05;3.33;;;;;;;0.76;57.48;100101.25;1776599;78;20984;-66
2022/01/08 11:30:40;;;;;;;12.50;4.55;;;;;;;0.82;57.44;100105.73;1756173;80;21134;-67
2022/01/08 11:33:14;;;;;;;6.83;3.50;;;;;;;0.88;56.96;100094.43;1753224;80;20888;-67
2022/01/08 11:35:39;;;;;;;7.33;3.67;;;;;;;0.87;57.14;100097.67;1778907;80;21039;-67
2022/01/08 11:38:08;;;;;;;9.10;4.05;;;;;;;0.85;57.08;100098.47;1779902;80;22998;-66
2022/01/08 11:40:37;;;;;;;8.95;3.72;;;;;;;0.83;57.00;100096.52;1765457;80;21056;-68
2022/01/08 11:43:05;;;;;;;7.47;3.85;;;;;;;0.77;57.27;100092.06;1781413;80;21142;-67